sensor_id;sensor_type;location;lat;lon;timestamp;pressure;altitude;pressure_sealevel;temperature;humidity
70758;BME280;59316;52.964;7.102;2023-04-02T00:01:35;101360.69;;;7.37;100.00
70758;BME280;59316;52.964;7.102;2023-04-02T00:07:24;101376.09;;;7.42;100.00
70758;BME280;59316;52.964;7.102;2023-04-02T00:13:02;101391.09;;;7.59;100.00
70758;BME280;59316;52.964;7.102;2023-04-02T00:18:26;101400.50;;;7.39;100.00
70758;BME280;59316;52.964;7.102;2023-04-02T00:23:47;101411.69;;;7.18;100.00
70758;BME280;59316;52.964;7.102;2023-04-02T00:29:12;101415.72;;;7.03;100.00
70758;BME280;59316;52.964;7.102;2023-04-02T00:34:36;101426.06;;;6.79;100.00
70758;BME280;59316;52.964;7.102;2023-04-02T00:40:04;101446.00;;;6.79;100.00
70758;BME280;59316;52.964;7.102;2023-04-02T00:45:40;101455.66;;;6.21;100.00
70758;BME280;59316;52.964;7.102;2023-04-02T00:51:12;101462.84;;;5.85;100.00
70758;BME280;59316;52.964;7.102;2023-04-02T00:56:42;101482.56;;;5.60;100.00
70758;BME280;59316;52.964;7.102;2023-04-02T01:07:58;101498.88;;;5.34;100.00
70758;BME280;59316;52.964;7.102;2023-04-02T01:26:10;63551.88;;;-143.20;100.00
70758;BME280;59316;52.964;7.102;2023-04-02T01:31:43;63551.88;;;-143.20;100.00
70758;BME280;59316;52.964;7.102;2023-04-02T01:43:02;63551.88;;;-143.20;100.00
70758;BME280;59316;52.964;7.102;2023-04-02T01:48:29;63551.88;;;-143.20;100.00
70758;BME280;59316;52.964;7.102;2023-04-02T01:53:51;63551.88;;;-143.20;100.00
70758;BME280;59316;52.964;7.102;2023-04-02T01:59:16;63551.88;;;-143.20;100.00
70758;BME280;59316;52.964;7.102;2023-04-02T02:04:40;63551.88;;;-143.20;100.00
70758;BME280;59316;52.964;7.102;2023-04-02T02:10:02;63551.88;;;-143.20;100.00
70758;BME280;59316;52.964;7.102;2023-04-02T02:15:23;63551.88;;;-143.20;100.00
70758;BME280;59316;52.964;7.102;2023-04-02T02:20:45;63551.88;;;-143.20;100.00
70758;BME280;59316;52.964;7.102;2023-04-02T02:26:07;63551.88;;;-143.20;100.00
70758;BME280;59316;52.964;7.102;2023-04-02T02:31:30;63551.88;;;-143.20;100.00
70758;BME280;59316;52.964;7.102;2023-04-02T02:36:57;63551.88;;;-143.20;100.00
70758;BME280;59316;52.964;7.102;2023-04-02T02:42:31;63551.88;;;-143.20;100.00
70758;BME280;59316;52.964;7.102;2023-04-02T02:47:56;63551.88;;;-143.20;100.00
70758;BME280;59316;52.964;7.102;2023-04-02T02:53:21;63551.88;;;-143.20;100.00
70758;BME280;59316;52.964;7.102;2023-04-02T02:58:46;63551.88;;;-143.20;100.00
70758;BME280;59316;52.964;7.102;2023-04-02T03:04:20;63551.88;;;-143.20;100.00
70758;BME280;59316;52.964;7.102;2023-04-02T03:09:53;63551.88;;;-143.20;100.00
70758;BME280;59316;52.964;7.102;2023-04-02T03:15:26;63551.88;;;-143.20;100.00
70758;BME280;59316;52.964;7.102;2023-04-02T03:21:01;63551.88;;;-143.20;100.00
70758;BME280;59316;52.964;7.102;2023-04-02T03:26:48;63551.88;;;-143.20;100.00
70758;BME280;59316;52.964;7.102;2023-04-02T03:32:28;63551.88;;;-143.20;100.00
70758;BME280;59316;52.964;7.102;2023-04-02T03:37:59;63551.88;;;-143.20;100.00
70758;BME280;59316;52.964;7.102;2023-04-02T03:43:46;63551.88;;;-143.20;100.00
70758;BME280;59316;52.964;7.102;2023-04-02T03:50:10;63551.88;;;-143.20;100.00
70758;BME280;59316;52.964;7.102;2023-04-02T04:06:51;63551.88;;;-143.20;100.00
70758;BME280;59316;52.964;7.102;2023-04-02T04:23:30;63551.88;;;-143.20;100.00
70758;BME280;59316;52.964;7.102;2023-04-02T04:34:58;63551.88;;;-143.20;100.00
70758;BME280;59316;52.964;7.102;2023-04-02T04:40:35;63551.88;;;-143.20;100.00
70758;BME280;59316;52.964;7.102;2023-04-02T04:46:05;63551.88;;;-143.20;100.00
70758;BME280;59316;52.964;7.102;2023-04-02T04:51:58;63551.88;;;-143.20;100.00
70758;BME280;59316;52.964;7.102;2023-04-02T04:57:48;63551.88;;;-143.20;100.00
70758;BME280;59316;52.964;7.102;2023-04-02T05:08:44;63551.88;;;-143.20;100.00
70758;BME280;59316;52.964;7.102;2023-04-02T05:14:34;63551.88;;;-143.20;100.00
70758;BME280;59316;52.964;7.102;2023-04-02T05:26:13;63551.88;;;-143.20;100.00
70758;BME280;59316;52.964;7.102;2023-04-02T05:32:03;63551.88;;;-143.20;100.00
70758;BME280;59316;52.964;7.102;2023-04-02T05:37:30;63551.88;;;-143.20;100.00
70758;BME280;59316;52.964;7.102;2023-04-02T05:42:52;63551.88;;;-143.20;100.00
70758;BME280;59316;52.964;7.102;2023-04-02T05:48:18;63551.88;;;-143.20;100.00
70758;BME280;59316;52.964;7.102;2023-04-02T05:53:59;63551.88;;;-143.20;100.00
70758;BME280;59316;52.964;7.102;2023-04-02T05:59:28;63551.88;;;-143.20;100.00
70758;BME280;59316;52.964;7.102;2023-04-02T06:05:01;63551.88;;;-143.20;100.00
70758;BME280;59316;52.964;7.102;2023-04-02T06:11:00;63551.88;;;-143.20;100.00
70758;BME280;59316;52.964;7.102;2023-04-02T06:16:29;63551.88;;;-143.20;100.00
70758;BME280;59316;52.964;7.102;2023-04-02T06:21:57;63551.88;;;-143.20;100.00
70758;BME280;59316;52.964;7.102;2023-04-02T06:27:28;63551.88;;;-143.20;100.00
70758;BME280;59316;52.964;7.102;2023-04-02T06:32:49;63551.88;;;-143.20;100.00
70758;BME280;59316;52.964;7.102;2023-04-02T06:38:18;63551.88;;;-143.20;100.00
70758;BME280;59316;52.964;7.102;2023-04-02T06:43:49;63551.88;;;-143.20;100.00
70758;BME280;59316;52.964;7.102;2023-04-02T07:01:25;102177.38;;;5.51;nan
70758;BME280;59316;52.964;7.102;2023-04-02T07:06:49;102191.75;;;6.17;nan
70758;BME280;59316;52.964;7.102;2023-04-02T07:12:12;102185.28;;;6.37;nan
70758;BME280;59316;52.964;7.102;2023-04-02T07:17:35;102197.09;;;6.92;nan
70758;BME280;59316;52.964;7.102;2023-04-02T07:22:57;102207.97;;;6.71;nan
70758;BME280;59316;52.964;7.102;2023-04-02T07:28:19;102215.47;;;6.44;nan
70758;BME280;59316;52.964;7.102;2023-04-02T07:33:42;102227.78;;;5.87;nan
70758;BME280;59316;52.964;7.102;2023-04-02T07:39:04;102229.56;;;6.31;nan
70758;BME280;59316;52.964;7.102;2023-04-02T07:44:27;102237.88;;;6.03;nan
70758;BME280;59316;52.964;7.102;2023-04-02T07:49:48;102243.53;;;6.26;nan
70758;BME280;59316;52.964;7.102;2023-04-02T07:55:11;102233.06;;;6.31;nan
70758;BME280;59316;52.964;7.102;2023-04-02T08:00:33;102245.25;;;6.70;nan
70758;BME280;59316;52.964;7.102;2023-04-02T08:05:56;102259.63;;;6.46;nan
70758;BME280;59316;52.964;7.102;2023-04-02T08:11:18;102275.69;;;6.21;nan
70758;BME280;59316;52.964;7.102;2023-04-02T08:16:48;102283.47;;;5.69;nan
70758;BME280;59316;52.964;7.102;2023-04-02T08:22:12;102297.06;;;5.85;nan
70758;BME280;59316;52.964;7.102;2023-04-02T08:27:34;102290.81;;;6.46;nan
70758;BME280;59316;52.964;7.102;2023-04-02T08:32:55;102295.63;;;8.16;nan
70758;BME280;59316;52.964;7.102;2023-04-02T08:38:19;102284.50;;;9.04;nan
70758;BME280;59316;52.964;7.102;2023-04-02T08:49:38;102320.84;;;9.94;nan
70758;BME280;59316;52.964;7.102;2023-04-02T08:55:17;102322.88;;;9.85;nan
70758;BME280;59316;52.964;7.102;2023-04-02T09:00:43;102322.75;;;9.62;nan
70758;BME280;59316;52.964;7.102;2023-04-02T09:06:06;102339.25;;;9.91;nan
70758;BME280;59316;52.964;7.102;2023-04-02T09:17:30;102340.56;;;11.04;nan
70758;BME280;59316;52.964;7.102;2023-04-02T09:23:02;102364.84;;;10.83;nan
70758;BME280;59316;52.964;7.102;2023-04-02T09:28:25;102359.97;;;10.49;nan
70758;BME280;59316;52.964;7.102;2023-04-02T09:33:48;102363.97;;;11.08;nan
70758;BME280;59316;52.964;7.102;2023-04-02T09:39:22;102373.81;;;11.92;nan
70758;BME280;59316;52.964;7.102;2023-04-02T09:44:45;102368.00;;;11.17;nan
70758;BME280;59316;52.964;7.102;2023-04-02T09:50:32;102385.38;;;11.64;nan
70758;BME280;59316;52.964;7.102;2023-04-02T09:56:07;102397.56;;;11.87;nan
70758;BME280;59316;52.964;7.102;2023-04-02T10:01:32;102399.16;;;11.69;nan
70758;BME280;59316;52.964;7.102;2023-04-02T10:06:54;102386.56;;;11.11;nan
70758;BME280;59316;52.964;7.102;2023-04-02T10:12:16;102422.47;;;10.30;nan
70758;BME280;59316;52.964;7.102;2023-04-02T10:17:38;102426.59;;;10.64;nan
70758;BME280;59316;52.964;7.102;2023-04-02T10:23:00;102428.53;;;11.08;nan
70758;BME280;59316;52.964;7.102;2023-04-02T10:28:54;102418.78;;;11.59;nan
70758;BME280;59316;52.964;7.102;2023-04-02T10:40:38;102420.31;;;12.52;nan
70758;BME280;59316;52.964;7.102;2023-04-02T10:46:35;102429.03;;;12.73;nan
70758;BME280;59316;52.964;7.102;2023-04-02T10:52:24;102432.56;;;12.92;nan
70758;BME280;59316;52.964;7.102;2023-04-02T10:57:50;102439.66;;;11.84;nan
70758;BME280;59316;52.964;7.102;2023-04-02T11:08:51;102472.63;;;11.44;nan
70758;BME280;59316;52.964;7.102;2023-04-02T11:14:21;102481.44;;;12.54;nan
70758;BME280;59316;52.964;7.102;2023-04-02T11:19:45;102469.09;;;12.97;nan
70758;BME280;59316;52.964;7.102;2023-04-02T11:25:19;102487.22;;;13.03;nan
70758;BME280;59316;52.964;7.102;2023-04-02T11:30:41;102492.41;;;13.05;nan
70758;BME280;59316;52.964;7.102;2023-04-02T11:47:38;102497.66;;;14.38;nan
70758;BME280;59316;52.964;7.102;2023-04-02T12:11:01;102509.16;;;15.57;nan
70758;BME280;59316;52.964;7.102;2023-04-02T12:16:24;102500.25;;;14.75;nan
70758;BME280;59316;52.964;7.102;2023-04-02T12:21:45;102517.59;;;14.25;nan
70758;BME280;59316;52.964;7.102;2023-04-02T12:27:22;102503.44;;;13.91;nan
70758;BME280;59316;52.964;7.102;2023-04-02T12:32:45;102529.88;;;13.50;nan
70758;BME280;59316;52.964;7.102;2023-04-02T12:38:28;102527.53;;;15.25;nan
70758;BME280;59316;52.964;7.102;2023-04-02T12:44:05;102529.22;;;14.21;nan
70758;BME280;59316;52.964;7.102;2023-04-02T12:49:42;102544.22;;;13.22;nan
70758;BME280;59316;52.964;7.102;2023-04-02T12:55:05;102562.00;;;13.15;nan
70758;BME280;59316;52.964;7.102;2023-04-02T13:00:35;102555.97;;;13.13;nan
70758;BME280;59316;52.964;7.102;2023-04-02T13:05:57;102535.41;;;14.20;nan
70758;BME280;59316;52.964;7.102;2023-04-02T13:11:19;102524.75;;;14.40;nan
70758;BME280;59316;52.964;7.102;2023-04-02T13:16:41;102535.09;;;14.80;nan
70758;BME280;59316;52.964;7.102;2023-04-02T13:22:26;102548.66;;;15.41;nan
70758;BME280;59316;52.964;7.102;2023-04-02T13:27:50;102542.66;;;15.04;nan
70758;BME280;59316;52.964;7.102;2023-04-02T13:33:13;102551.97;;;14.93;nan
70758;BME280;59316;52.964;7.102;2023-04-02T13:38:35;102549.53;;;14.00;nan
70758;BME280;59316;52.964;7.102;2023-04-02T13:43:58;102547.75;;;14.37;nan
70758;BME280;59316;52.964;7.102;2023-04-02T13:49:22;102554.44;;;13.48;nan
70758;BME280;59316;52.964;7.102;2023-04-02T13:54:50;102550.53;;;13.76;nan
70758;BME280;59316;52.964;7.102;2023-04-02T14:00:13;102563.41;;;13.83;nan
70758;BME280;59316;52.964;7.102;2023-04-02T14:23:43;102567.72;;;14.41;nan
70758;BME280;59316;52.964;7.102;2023-04-02T14:29:27;102570.06;;;14.65;nan
70758;BME280;59316;52.964;7.102;2023-04-02T14:40:56;102584.69;;;13.38;nan
70758;BME280;59316;52.964;7.102;2023-04-02T14:46:24;102578.63;;;13.95;nan
70758;BME280;59316;52.964;7.102;2023-04-02T14:57:28;102598.97;;;14.29;nan
70758;BME280;59316;52.964;7.102;2023-04-02T15:03:12;102593.72;;;14.29;nan
70758;BME280;59316;52.964;7.102;2023-04-02T15:08:46;102601.94;;;14.41;nan
70758;BME280;59316;52.964;7.102;2023-04-02T15:14:40;102604.22;;;14.49;nan
70758;BME280;59316;52.964;7.102;2023-04-02T15:20:16;102605.06;;;13.92;nan
70758;BME280;59316;52.964;7.102;2023-04-02T15:31:12;102597.41;;;14.25;nan
70758;BME280;59316;52.964;7.102;2023-04-02T15:47:48;102629.50;;;13.75;nan
70758;BME280;59316;52.964;7.102;2023-04-02T16:00:08;102635.66;;;13.55;nan
70758;BME280;59316;52.964;7.102;2023-04-02T16:06:12;102648.63;;;13.78;nan
70758;BME280;59316;52.964;7.102;2023-04-02T16:11:38;102655.88;;;13.11;nan
70758;BME280;59316;52.964;7.102;2023-04-02T16:17:03;102662.13;;;12.64;nan
70758;BME280;59316;52.964;7.102;2023-04-02T16:22:43;102656.44;;;12.29;nan
70758;BME280;59316;52.964;7.102;2023-04-02T16:28:23;102683.50;;;12.06;nan
70758;BME280;59316;52.964;7.102;2023-04-02T16:39:57;102688.31;;;10.31;nan
70758;BME280;59316;52.964;7.102;2023-04-02T17:09:02;102743.47;;;9.19;nan
70758;BME280;59316;52.964;7.102;2023-04-02T17:14:41;102750.63;;;9.11;nan
70758;BME280;59316;52.964;7.102;2023-04-02T17:20:17;102757.91;;;8.97;nan
70758;BME280;59316;52.964;7.102;2023-04-02T17:25:56;102758.94;;;8.89;nan
70758;BME280;59316;52.964;7.102;2023-04-02T17:31:24;102774.97;;;8.71;nan
70758;BME280;59316;52.964;7.102;2023-04-02T17:42:46;102783.56;;;8.32;nan
70758;BME280;59316;52.964;7.102;2023-04-02T17:54:07;102794.38;;;8.12;nan
70758;BME280;59316;52.964;7.102;2023-04-02T18:05:45;102814.09;;;7.74;nan
70758;BME280;59316;52.964;7.102;2023-04-02T18:11:39;102834.34;;;7.55;nan
70758;BME280;59316;52.964;7.102;2023-04-02T18:17:26;102846.63;;;7.47;nan
70758;BME280;59316;52.964;7.102;2023-04-02T18:46:51;102898.91;;;6.53;nan
70758;BME280;59316;52.964;7.102;2023-04-02T18:52:16;102920.81;;;6.28;nan
70758;BME280;59316;52.964;7.102;2023-04-02T18:57:39;102928.78;;;6.06;nan
70758;BME280;59316;52.964;7.102;2023-04-02T19:03:26;102932.41;;;5.80;nan
70758;BME280;59316;52.964;7.102;2023-04-02T19:09:17;102939.31;;;5.80;nan
70758;BME280;59316;52.964;7.102;2023-04-02T19:14:47;102943.72;;;5.70;nan
70758;BME280;59316;52.964;7.102;2023-04-02T19:20:23;102952.47;;;5.53;nan
70758;BME280;59316;52.964;7.102;2023-04-02T19:26:02;102964.59;;;5.50;nan
70758;BME280;59316;52.964;7.102;2023-04-02T19:42:51;102983.72;;;5.19;nan
70758;BME280;59316;52.964;7.102;2023-04-02T19:48:14;102995.00;;;4.95;nan
70758;BME280;59316;52.964;7.102;2023-04-02T19:53:38;102988.13;;;4.85;nan
70758;BME280;59316;52.964;7.102;2023-04-02T19:59:00;102998.50;;;4.83;nan
70758;BME280;59316;52.964;7.102;2023-04-02T20:04:27;103001.94;;;4.68;nan
70758;BME280;59316;52.964;7.102;2023-04-02T20:09:48;103008.88;;;4.58;nan
70758;BME280;59316;52.964;7.102;2023-04-02T20:15:10;103008.88;;;4.55;nan
70758;BME280;59316;52.964;7.102;2023-04-02T20:20:32;103030.44;;;4.54;nan
70758;BME280;59316;52.964;7.102;2023-04-02T20:25:55;103037.34;;;4.43;nan
70758;BME280;59316;52.964;7.102;2023-04-02T20:31:17;103047.69;;;4.27;nan
70758;BME280;59316;52.964;7.102;2023-04-02T20:36:38;103045.06;;;4.13;nan
70758;BME280;59316;52.964;7.102;2023-04-02T20:42:00;103059.72;;;3.99;nan
70758;BME280;59316;52.964;7.102;2023-04-02T20:47:21;103061.38;;;3.86;nan
70758;BME280;59316;52.964;7.102;2023-04-02T20:52:43;103065.66;;;3.73;nan
70758;BME280;59316;52.964;7.102;2023-04-02T20:58:04;103073.38;;;3.67;nan
70758;BME280;59316;52.964;7.102;2023-04-02T21:03:26;103083.72;;;3.64;nan
70758;BME280;59316;52.964;7.102;2023-04-02T21:08:48;103089.69;;;3.52;nan
70758;BME280;59316;52.964;7.102;2023-04-02T21:14:10;103104.25;;;3.39;nan
70758;BME280;59316;52.964;7.102;2023-04-02T21:19:32;103116.28;;;3.29;nan
70758;BME280;59316;52.964;7.102;2023-04-02T21:24:54;103117.94;;;3.21;nan
70758;BME280;59316;52.964;7.102;2023-04-02T21:30:16;103117.19;;;3.33;nan
70758;BME280;59316;52.964;7.102;2023-04-02T21:35:37;103123.25;;;3.38;nan
70758;BME280;59316;52.964;7.102;2023-04-02T21:41:32;103135.34;;;3.42;nan
70758;BME280;59316;52.964;7.102;2023-04-02T21:46:55;103134.47;;;3.42;nan
70758;BME280;59316;52.964;7.102;2023-04-02T21:52:16;103141.38;;;3.41;nan
70758;BME280;59316;52.964;7.102;2023-04-02T21:57:37;103149.16;;;3.46;nan
70758;BME280;59316;52.964;7.102;2023-04-02T22:02:59;103156.88;;;3.38;nan
70758;BME280;59316;52.964;7.102;2023-04-02T22:08:20;103151.72;;;3.43;nan
70758;BME280;59316;52.964;7.102;2023-04-02T22:13:43;103154.41;;;3.55;nan
70758;BME280;59316;52.964;7.102;2023-04-02T22:19:07;103161.22;;;3.44;nan
70758;BME280;59316;52.964;7.102;2023-04-02T22:24:30;103164.47;;;3.17;nan
70758;BME280;59316;52.964;7.102;2023-04-02T22:29:52;103179.81;;;3.00;nan
70758;BME280;59316;52.964;7.102;2023-04-02T22:35:13;103175.31;;;2.81;nan
70758;BME280;59316;52.964;7.102;2023-04-02T22:40:34;103172.66;;;2.75;nan
70758;BME280;59316;52.964;7.102;2023-04-02T22:45:57;103178.81;;;2.85;nan
70758;BME280;59316;52.964;7.102;2023-04-02T22:51:19;103178.09;;;2.98;nan
70758;BME280;59316;52.964;7.102;2023-04-02T22:56:42;103180.56;;;2.89;nan
70758;BME280;59316;52.964;7.102;2023-04-02T23:02:03;103190.81;;;2.77;nan
70758;BME280;59316;52.964;7.102;2023-04-02T23:07:25;103195.91;;;2.74;nan
70758;BME280;59316;52.964;7.102;2023-04-02T23:12:47;103198.34;;;2.58;nan
70758;BME280;59316;52.964;7.102;2023-04-02T23:18:08;103204.34;;;2.57;nan
70758;BME280;59316;52.964;7.102;2023-04-02T23:23:30;103198.31;;;2.55;nan
70758;BME280;59316;52.964;7.102;2023-04-02T23:28:58;103217.09;;;2.43;nan
70758;BME280;59316;52.964;7.102;2023-04-02T23:34:34;103219.84;;;2.59;nan
70758;BME280;59316;52.964;7.102;2023-04-02T23:40:06;103212.00;;;2.49;nan
70758;BME280;59316;52.964;7.102;2023-04-02T23:45:51;103211.06;;;2.41;nan
70758;BME280;59316;52.964;7.102;2023-04-02T23:51:16;103214.38;;;2.32;nan
70758;BME280;59316;52.964;7.102;2023-04-02T23:57:32;103219.47;;;2.28;nan
